createdAt,value
2023-05-09T00:02:18.928Z,100799.22
2023-05-09T00:04:48.142Z,100795.38
2023-05-09T00:07:14.668Z,100795.53
2023-05-09T00:09:41.584Z,100794.66
2023-05-09T00:12:08.265Z,100791.72
2023-05-09T00:14:40.690Z,100794.72
2023-05-09T00:17:09.709Z,100792.91
2023-05-09T00:19:39.705Z,100806.22
2023-05-09T00:22:12.922Z,100790.84
2023-05-09T00:24:39.893Z,100780.31
2023-05-09T00:27:06.422Z,100782.22
2023-05-09T00:29:35.032Z,100781.00
2023-05-09T00:32:03.993Z,100781.25
2023-05-09T00:34:30.548Z,100789.53
2023-05-09T00:36:57.194Z,100773.91
2023-05-09T00:39:26.849Z,100770.75
2023-05-09T00:41:56.054Z,100776.72
2023-05-09T00:44:22.467Z,100783.16
2023-05-09T00:46:49.089Z,100771.75
2023-05-09T00:49:15.830Z,100784.16
2023-05-09T00:51:47.484Z,100775.78
2023-05-09T00:54:14.268Z,100771.22
2023-05-09T00:56:43.377Z,100779.19
2023-05-09T00:59:10.095Z,100783.56
2023-05-09T01:01:39.017Z,100780.78
2023-05-09T01:04:07.871Z,100783.91
2023-05-09T01:06:52.662Z,100781.97
2023-05-09T01:09:32.714Z,100782.53
2023-05-09T01:12:05.262Z,100782.16
2023-05-09T01:15:04.444Z,100792.56
2023-05-09T01:17:52.017Z,100795.44
2023-05-09T01:20:36.434Z,100777.84
2023-05-09T01:23:08.936Z,100780.84
2023-05-09T01:25:38.502Z,100780.84
2023-05-09T01:28:34.734Z,100785.19
2023-05-09T01:31:03.638Z,100778.97
2023-05-09T01:33:37.085Z,100772.59
2023-05-09T01:36:09.666Z,100776.69
2023-05-09T01:38:40.916Z,100770.19
2023-05-09T01:41:11.999Z,100770.88
2023-05-09T01:43:40.630Z,100767.75
2023-05-09T01:46:09.117Z,100765.38
2023-05-09T01:48:41.574Z,100764.63
2023-05-09T01:51:10.037Z,100764.31
2023-05-09T01:53:36.911Z,100761.88
2023-05-09T01:56:07.887Z,100759.78
2023-05-09T01:58:37.038Z,100754.66
2023-05-09T02:01:08.533Z,100763.94
2023-05-09T02:03:38.135Z,100759.03
2023-05-09T02:06:07.743Z,100762.06
2023-05-09T02:08:37.075Z,100752.50
2023-05-09T02:11:07.132Z,100752.78
2023-05-09T02:13:33.899Z,100753.78
2023-05-09T02:16:04.558Z,100758.25
2023-05-09T02:18:32.685Z,100753.00
2023-05-09T02:21:01.854Z,100747.91
2023-05-09T02:23:31.327Z,100746.16
2023-05-09T02:26:01.274Z,100748.38
2023-05-09T02:28:32.448Z,100749.69
2023-05-09T02:31:03.504Z,100749.75
2023-05-09T02:33:33.405Z,100741.69
2023-05-09T02:36:07.031Z,100739.66
2023-05-09T02:38:36.519Z,100736.91
2023-05-09T02:41:05.487Z,100741.53
2023-05-09T02:43:32.137Z,100737.41
2023-05-09T02:46:01.032Z,100741.16
2023-05-09T02:48:30.415Z,100732.81
2023-05-09T02:50:58.378Z,100736.78
2023-05-09T02:53:25.007Z,100739.03
2023-05-09T02:55:51.700Z,100748.13
2023-05-09T02:58:20.991Z,100739.50
2023-05-09T03:00:47.842Z,100740.50
2023-05-09T03:03:18.421Z,100735.81
2023-05-09T03:05:47.516Z,100732.16
2023-05-09T03:08:14.273Z,100728.78
2023-05-09T03:10:40.920Z,100731.34
2023-05-09T03:13:12.438Z,100728.78
2023-05-09T03:15:39.223Z,100727.94
2023-05-09T03:18:11.862Z,100723.94
2023-05-09T03:20:42.426Z,100722.00
2023-05-09T03:23:10.434Z,100719.50
2023-05-09T03:25:42.267Z,100725.44
2023-05-09T03:28:08.852Z,100728.78
2023-05-09T03:30:35.496Z,100728.78
2023-05-09T03:33:05.013Z,100726.78
2023-05-09T03:35:32.281Z,100731.09
2023-05-09T03:38:01.186Z,100731.06
2023-05-09T03:40:30.180Z,100746.28
2023-05-09T03:42:56.735Z,100730.31
2023-05-09T03:45:25.874Z,100736.41
2023-05-09T03:47:52.706Z,100742.78
2023-05-09T03:50:21.525Z,100739.78
2023-05-09T03:52:48.172Z,100748.53
2023-05-09T03:55:17.219Z,100749.34
2023-05-09T03:57:43.809Z,100748.56
2023-05-09T04:00:13.540Z,100750.25
2023-05-09T04:02:42.949Z,100742.66
2023-05-09T04:05:09.664Z,100747.59
2023-05-09T04:07:38.949Z,100747.44
2023-05-09T04:10:08.772Z,100750.13
2023-05-09T04:12:37.727Z,100735.50
2023-05-09T04:15:04.713Z,100739.59
2023-05-09T04:17:36.210Z,100756.09
2023-05-09T04:20:03.298Z,100753.06
2023-05-09T04:22:29.893Z,100741.88
2023-05-09T04:24:57.268Z,100741.81
2023-05-09T04:27:28.221Z,100747.84
2023-05-09T04:29:55.142Z,100746.44
2023-05-09T04:32:23.912Z,100749.94
2023-05-09T04:34:50.574Z,100742.94
2023-05-09T04:37:17.179Z,100747.72
2023-05-09T04:39:44.046Z,100758.19
2023-05-09T04:42:10.838Z,100758.78
2023-05-09T04:44:42.734Z,100757.63
2023-05-09T04:47:11.867Z,100755.78
2023-05-09T04:49:40.858Z,100759.81
2023-05-09T04:52:07.448Z,100756.78
2023-05-09T04:54:36.973Z,100765.53
2023-05-09T04:57:16.689Z,100760.50
2023-05-09T04:59:44.896Z,100754.72
2023-05-09T05:02:16.272Z,100761.22
2023-05-09T05:04:43.045Z,100754.72
2023-05-09T05:07:12.742Z,100764.25
2023-05-09T05:09:41.842Z,100764.56
2023-05-09T05:12:10.915Z,100764.44
2023-05-09T05:14:37.524Z,100773.59
2023-05-09T05:17:07.017Z,100769.09
2023-05-09T05:19:38.864Z,100750.53
2023-05-09T05:22:05.415Z,100757.50
2023-05-09T05:24:34.543Z,100775.09
2023-05-09T05:27:00.996Z,100757.84
2023-05-09T05:29:27.706Z,100763.34
2023-05-09T05:31:54.388Z,100764.19
2023-05-09T05:34:23.709Z,100760.19
2023-05-09T05:36:52.358Z,100758.81
2023-05-09T05:39:19.196Z,100759.88
2023-05-09T05:41:45.826Z,100750.28
2023-05-09T05:44:12.366Z,100750.69
2023-05-09T05:46:39.092Z,100755.34
2023-05-09T05:49:05.721Z,100756.69
2023-05-09T05:51:34.810Z,100758.19
2023-05-09T05:54:01.288Z,100752.50
2023-05-09T05:56:27.911Z,100759.09
2023-05-09T05:58:57.437Z,100773.63
2023-05-09T06:01:26.799Z,100754.66
2023-05-09T06:03:55.962Z,100762.34
2023-05-09T06:06:26.847Z,100759.38
2023-05-09T06:08:56.235Z,100761.25
2023-05-09T06:11:28.551Z,100760.50
2023-05-09T06:13:55.186Z,100762.28
2023-05-09T06:16:24.289Z,100765.44
2023-05-09T06:18:51.518Z,100770.91
2023-05-09T06:21:21.574Z,100760.56
2023-05-09T06:24:05.859Z,100762.53
2023-05-09T06:26:37.276Z,100760.50
2023-05-09T06:29:06.522Z,100756.28
2023-05-09T06:31:39.345Z,100748.94
2023-05-09T06:34:08.388Z,100749.00
2023-05-09T06:36:39.887Z,100756.25
2023-05-09T06:39:06.479Z,100747.00
2023-05-09T06:41:33.107Z,100743.72
2023-05-09T06:43:59.796Z,100740.69
2023-05-09T06:46:26.455Z,100747.66
2023-05-09T06:48:53.102Z,100740.69
2023-05-09T06:51:22.211Z,100729.56
2023-05-09T06:53:51.117Z,100736.13
2023-05-09T06:56:23.137Z,100735.38
2023-05-09T07:03:08.609Z,100730.72
2023-05-09T08:16:59.557Z,100634.91
2023-05-09T08:19:26.419Z,100654.75
2023-05-09T08:21:56.164Z,100649.72
2023-05-09T08:24:26.299Z,100643.84
2023-05-09T08:26:52.960Z,100655.03
2023-05-09T08:29:22.268Z,100639.28
2023-05-09T08:31:51.226Z,100647.13
2023-05-09T08:37:16.748Z,100644.59
2023-05-09T08:39:49.141Z,100623.81
2023-05-09T08:42:25.606Z,100635.25
2023-05-09T08:44:53.079Z,100640.25
2023-05-09T08:47:21.378Z,100647.28
2023-05-09T08:49:56.422Z,100646.63
2023-05-09T09:07:46.152Z,100605.13
2023-05-09T09:10:13.977Z,100611.34
2023-05-09T09:12:42.631Z,100601.88
2023-05-09T09:15:19.045Z,100602.75
2023-05-09T09:17:50.912Z,100601.91
2023-05-09T09:20:24.851Z,100600.16
2023-05-09T09:23:04.819Z,100608.00
2023-05-09T09:25:31.420Z,100598.47
2023-05-09T09:28:00.041Z,100603.66
2023-05-09T09:30:26.709Z,100602.78
2023-05-09T09:32:58.306Z,100601.94
2023-05-09T09:35:30.194Z,100602.78
2023-05-09T09:38:00.261Z,100599.31
2023-05-09T09:40:27.478Z,100600.19
2023-05-09T09:42:54.459Z,100608.72
2023-05-09T09:45:23.687Z,100601.75
2023-05-09T09:47:54.756Z,100596.53
2023-05-09T09:50:25.509Z,100601.75
2023-05-09T09:52:54.136Z,100594.81
2023-05-09T09:55:26.981Z,100587.81
2023-05-09T09:57:53.736Z,100598.41
2023-05-09T10:00:26.533Z,100582.81
2023-05-09T10:02:54.522Z,100593.19
2023-05-09T10:05:29.596Z,100584.47
2023-05-09T10:07:56.787Z,100578.38
2023-05-09T10:10:25.471Z,100575.69
2023-05-09T10:12:56.688Z,100576.53
2023-05-09T10:15:27.604Z,100575.47
2023-05-09T10:17:58.238Z,100569.44
2023-05-09T10:20:25.509Z,100577.91
2023-05-09T10:22:59.013Z,100576.59
2023-05-09T10:25:39.456Z,100573.06
2023-05-09T10:28:15.556Z,100565.34
2023-05-09T10:30:59.648Z,100566.22
2023-05-09T10:33:37.997Z,100571.44
2023-05-09T10:36:06.379Z,100569.63
2023-05-09T10:38:33.481Z,100556.44
2023-05-09T10:41:03.734Z,100556.31
2023-05-09T10:43:32.169Z,100567.41
2023-05-09T10:46:01.677Z,100561.94
2023-05-09T10:48:28.850Z,100573.06
2023-05-09T10:50:58.948Z,100569.47
2023-05-09T10:53:40.531Z,100571.53
2023-05-09T10:56:09.978Z,100564.97
2023-05-09T10:58:40.895Z,100567.44
2023-05-09T11:01:07.532Z,100557.13
2023-05-09T11:03:54.473Z,100571.44
2023-05-09T11:06:49.458Z,100566.13
2023-05-09T11:09:35.885Z,100559.66
2023-05-09T11:12:07.774Z,100559.94
2023-05-09T11:14:47.392Z,100559.28
2023-05-09T11:17:27.560Z,100555.06
2023-05-09T11:20:03.512Z,100554.16
2023-05-09T11:22:37.750Z,100540.81
2023-05-09T11:25:14.701Z,100538.91
2023-05-09T11:27:50.009Z,100539.03
2023-05-09T11:30:19.076Z,100533.72
2023-05-09T11:32:58.977Z,100537.00
2023-05-09T11:35:28.684Z,100528.34
2023-05-09T11:38:07.711Z,100531.31
2023-05-09T11:40:35.586Z,100522.72
2023-05-09T11:43:02.440Z,100523.75
2023-05-09T11:45:33.686Z,100523.75
2023-05-09T11:48:09.470Z,100533.56
2023-05-09T11:50:38.586Z,100527.69
2023-05-09T11:53:08.530Z,100516.63
2023-05-09T11:55:38.074Z,100511.31
2023-05-09T11:58:09.854Z,100512.47
2023-05-09T12:00:43.673Z,100516.78
2023-05-09T12:03:12.836Z,100498.47
2023-05-09T12:05:42.790Z,100500.19
2023-05-09T12:08:13.562Z,100494.97
2023-05-09T12:10:42.420Z,100496.66
2023-05-09T12:13:10.353Z,100503.38
2023-05-09T12:15:40.054Z,100494.19
2023-05-09T12:18:10.614Z,100507.25
2023-05-09T12:20:50.224Z,100496.94
2023-05-09T12:23:21.631Z,100492.63
2023-05-09T12:25:55.395Z,100495.28
2023-05-09T12:28:24.099Z,100489.25
2023-05-09T12:30:56.414Z,100481.38
2023-05-09T12:33:25.866Z,100483.19
2023-05-09T12:36:03.582Z,100487.38
2023-05-09T12:38:32.985Z,100473.44
2023-05-09T12:41:18.805Z,100474.03
2023-05-09T12:43:57.074Z,100474.59
2023-05-09T12:46:24.450Z,100470.91
2023-05-09T12:48:53.383Z,100463.19
2023-05-09T12:51:22.783Z,100459.25
2023-05-09T12:53:54.564Z,100455.94
2023-05-09T12:56:28.213Z,100461.22
2023-05-09T12:59:02.566Z,100456.09
2023-05-09T13:01:32.011Z,100456.13
2023-05-09T13:04:06.246Z,100447.50
2023-05-09T13:06:36.421Z,100439.38
2023-05-09T13:09:06.177Z,100441.94
2023-05-09T13:11:37.894Z,100443.75
2023-05-09T13:14:09.407Z,100446.41
2023-05-09T13:16:36.121Z,100436.81
2023-05-09T13:19:05.776Z,100439.25
2023-05-09T13:21:35.185Z,100424.16
2023-05-09T13:24:05.208Z,100425.59
2023-05-09T13:26:34.328Z,100427.25
2023-05-09T13:29:03.346Z,100421.31
2023-05-09T13:31:33.146Z,100409.16
2023-05-09T13:33:59.965Z,100417.69
2023-05-09T13:36:26.799Z,100416.81
2023-05-09T13:38:56.903Z,100420.38
2023-05-09T13:41:24.092Z,100417.28
2023-05-09T13:43:56.043Z,100413.06
2023-05-09T13:46:22.662Z,100406.22
2023-05-09T13:48:55.277Z,100420.34
2023-05-09T13:51:22.654Z,100408.19
2023-05-09T13:53:51.659Z,100400.53
2023-05-09T13:56:20.807Z,100398.06
2023-05-09T13:58:47.412Z,100403.22
2023-05-09T14:01:16.320Z,100398.19
2023-05-09T14:03:43.068Z,100390.41
2023-05-09T14:06:10.486Z,100388.72
2023-05-09T14:08:37.271Z,100392.19
2023-05-09T14:11:07.533Z,100383.53
2023-05-09T14:13:39.390Z,100386.09
2023-05-09T14:16:09.577Z,100387.81
2023-05-09T14:18:36.194Z,100381.84
2023-05-09T14:21:05.545Z,100383.38
2023-05-09T14:23:32.196Z,100378.19
2023-05-09T14:26:02.442Z,100373.91
2023-05-09T14:28:31.618Z,100374.66
2023-05-09T14:31:00.712Z,100376.34
2023-05-09T14:33:29.810Z,100370.94
2023-05-09T14:35:56.675Z,100376.81
2023-05-09T14:38:23.287Z,100374.06
2023-05-09T14:40:52.520Z,100372.09
2023-05-09T14:43:22.305Z,100365.13
2023-05-09T14:45:48.903Z,100369.78
2023-05-09T14:48:16.273Z,100375.31
2023-05-09T14:50:43.157Z,100365.78
2023-05-09T14:53:13.308Z,100368.41
2023-05-09T14:58:34.309Z,100366.84
2023-05-09T15:01:01.525Z,100356.50
2023-05-09T15:03:32.351Z,100352.28
2023-05-09T15:05:59.248Z,100353.97
2023-05-09T15:09:13.500Z,100350.47
2023-05-09T15:11:47.425Z,100351.28
2023-05-09T15:14:16.687Z,100348.31
2023-05-09T15:16:43.710Z,100343.75
2023-05-09T15:19:12.985Z,100338.66
2023-05-09T15:21:42.607Z,100332.09
2023-05-09T15:24:14.422Z,100328.91
2023-05-09T15:26:43.608Z,100325.22
2023-05-09T15:29:10.447Z,100323.19
2023-05-09T15:31:39.450Z,100318.25
2023-05-09T15:34:06.134Z,100318.63
2023-05-09T15:36:34.987Z,100317.44
2023-05-09T15:39:01.593Z,100311.06
2023-05-09T15:41:33.338Z,100316.69
2023-05-09T15:43:59.954Z,100322.88
2023-05-09T15:46:33.246Z,100319.72
2023-05-09T15:48:59.940Z,100316.75
2023-05-09T15:51:29.784Z,100321.59
2023-05-09T15:53:56.413Z,100315.63
2023-05-09T15:56:22.999Z,100316.44
2023-05-09T15:58:49.570Z,100297.84
2023-05-09T16:01:16.240Z,100300.13
2023-05-09T16:03:43.284Z,100298.78
2023-05-09T16:06:12.966Z,100295.97
2023-05-09T16:08:39.678Z,100294.44
2023-05-09T16:11:06.416Z,100296.16
2023-05-09T16:13:35.048Z,100289.47
2023-05-09T16:16:02.625Z,100285.94
2023-05-09T16:18:29.236Z,100295.16
2023-05-09T16:20:56.062Z,100291.34
2023-05-09T16:23:26.045Z,100303.09
2023-05-09T16:25:52.668Z,100304.09
2023-05-09T16:28:23.540Z,100313.91
2023-05-09T16:30:51.523Z,100313.34
2023-05-09T16:33:18.682Z,100301.34
2023-05-09T16:35:45.305Z,100294.44
2023-05-09T16:38:13.093Z,100294.56
2023-05-09T16:40:40.053Z,100294.59
2023-05-09T16:43:09.158Z,100291.16
2023-05-09T16:45:35.828Z,100290.31
2023-05-09T16:48:02.720Z,100289.44
2023-05-09T16:50:31.692Z,100284.25
2023-05-09T16:52:58.228Z,100277.34
2023-05-09T16:55:27.141Z,100280.03
2023-05-09T16:57:53.726Z,100281.72
2023-05-09T17:00:20.874Z,100275.69
2023-05-09T17:02:47.545Z,100270.47
2023-05-09T17:05:16.460Z,100273.03
2023-05-09T17:07:42.916Z,100274.75
2023-05-09T17:10:14.953Z,100271.31
2023-05-09T17:12:44.109Z,100273.13
2023-05-09T17:15:11.961Z,100269.63
2023-05-09T17:17:38.680Z,100280.06
2023-05-09T17:20:11.305Z,100274.88
2023-05-09T17:22:38.099Z,100273.97
2023-05-09T17:25:07.685Z,100274.88
2023-05-09T17:27:36.915Z,100276.63
2023-05-09T17:30:04.169Z,100273.16
2023-05-09T17:32:30.893Z,100278.34
2023-05-09T17:35:00.560Z,100280.13
2023-05-09T17:37:27.383Z,100280.91
2023-05-09T17:39:56.509Z,100271.47
2023-05-09T17:42:26.002Z,100271.47
2023-05-09T17:44:53.266Z,100279.25
2023-05-09T17:47:22.204Z,100271.47
2023-05-09T17:49:52.415Z,100280.97
2023-05-09T17:52:19.197Z,100276.66
2023-05-09T17:54:45.963Z,100272.34
2023-05-09T17:57:15.181Z,100280.13
2023-05-09T17:59:45.695Z,100273.19
2023-05-09T18:02:13.679Z,100280.13
2023-05-09T18:04:40.560Z,100276.63
2023-05-09T18:07:08.551Z,100277.50
2023-05-09T18:09:37.436Z,100274.94
2023-05-09T18:12:06.752Z,100276.66
2023-05-09T18:14:35.882Z,100271.44
2023-05-09T18:17:02.489Z,100278.38
2023-05-09T18:19:29.308Z,100281.81
2023-05-09T18:21:55.938Z,100285.25
2023-05-09T18:24:23.246Z,100288.63
2023-05-09T18:26:52.455Z,100289.53
2023-05-09T18:29:24.386Z,100284.34
2023-05-09T18:31:53.747Z,100290.34
2023-05-09T18:34:20.612Z,100288.63
2023-05-09T18:36:47.509Z,100297.28
2023-05-09T18:39:16.760Z,100296.47
2023-05-09T18:41:48.209Z,100289.47
2023-05-09T18:44:14.807Z,100297.09
2023-05-09T18:46:44.390Z,100300.38
2023-05-09T18:49:11.417Z,100298.84
2023-05-09T18:51:40.489Z,100304.94
2023-05-09T18:54:08.406Z,100304.09
2023-05-09T18:56:39.437Z,100304.06
2023-05-09T18:59:07.558Z,100311.72
2023-05-09T19:01:34.185Z,100312.53
2023-05-09T19:04:02.164Z,100310.81
2023-05-09T19:06:29.141Z,100311.66
2023-05-09T19:08:58.233Z,100315.81
2023-05-09T19:11:28.264Z,100314.22
2023-05-09T19:13:55.075Z,100319.38
2023-05-09T19:16:23.768Z,100309.13
2023-05-09T19:18:52.773Z,100309.19
2023-05-09T19:21:21.575Z,100316.03
2023-05-09T19:23:49.185Z,100304.75
2023-05-09T19:26:18.377Z,100302.13
2023-05-09T19:28:48.105Z,100307.31
2023-05-09T19:31:18.807Z,100306.44
2023-05-09T19:33:50.217Z,100308.16
2023-05-09T19:36:18.104Z,100316.75
2023-05-09T19:38:47.113Z,100314.16
2023-05-09T19:41:14.007Z,100315.88
2023-05-09T19:43:42.925Z,100317.41
2023-05-09T19:46:09.962Z,100308.59
2023-05-09T19:48:36.777Z,100307.75
2023-05-09T19:51:08.786Z,100312.78
2023-05-09T19:53:35.662Z,100312.75
2023-05-09T19:56:02.520Z,100313.47
2023-05-09T19:58:31.326Z,100304.72
2023-05-09T20:01:00.396Z,100298.06
2023-05-09T20:03:27.108Z,100301.50
2023-05-09T20:05:58.655Z,100298.84
2023-05-09T20:08:28.051Z,100295.38
2023-05-09T20:11:00.433Z,100295.38
2023-05-09T20:13:27.768Z,100301.44
2023-05-09T20:15:57.577Z,100304.16
2023-05-09T20:18:26.932Z,100302.59
2023-05-09T20:20:54.778Z,100302.59
2023-05-09T20:23:27.573Z,100303.28
2023-05-09T20:25:59.100Z,100304.25
2023-05-09T20:28:25.777Z,100304.25
2023-05-09T20:30:52.405Z,100294.84
2023-05-09T20:33:19.204Z,100296.41
2023-05-09T20:35:45.987Z,100295.22
2023-05-09T20:38:15.056Z,100289.28
2023-05-09T20:40:42.915Z,100296.19
2023-05-09T20:43:09.831Z,100285.75
2023-05-09T20:45:38.830Z,100284.19
2023-05-09T20:48:06.785Z,100285.06
2023-05-09T20:50:33.912Z,100279.09
2023-05-09T20:53:02.787Z,100281.41
2023-05-09T20:55:29.336Z,100275.41
2023-05-09T20:57:56.440Z,100285.72
2023-05-09T21:00:25.544Z,100276.06
2023-05-09T21:02:56.208Z,100276.88
2023-05-09T21:05:24.882Z,100275.13
2023-05-09T21:07:53.832Z,100276.97
2023-05-09T21:10:22.928Z,100270.94
2023-05-09T21:12:49.374Z,100267.31
2023-05-09T21:15:18.241Z,100266.41
2023-05-09T21:17:47.248Z,100264.19
2023-05-09T21:20:16.567Z,100273.13
2023-05-09T21:22:43.477Z,100266.25
2023-05-09T21:25:12.531Z,100265.66
2023-05-09T21:27:39.016Z,100267.56
2023-05-09T21:30:08.604Z,100261.59
2023-05-09T21:32:35.251Z,100261.38
2023-05-09T21:35:04.660Z,100262.22
2023-05-09T21:37:33.869Z,100263.16
2023-05-09T21:40:00.670Z,100272.75
2023-05-09T21:42:32.217Z,100264.88
2023-05-09T21:44:58.775Z,100269.09
2023-05-09T21:47:25.670Z,100260.50
2023-05-09T21:49:53.453Z,100266.63
2023-05-09T21:52:20.052Z,100261.47
2023-05-09T21:54:49.558Z,100264.81
2023-05-09T21:57:18.450Z,100259.84
2023-05-09T21:59:47.532Z,100260.59
2023-05-09T22:02:14.486Z,100265.06
2023-05-09T22:04:41.060Z,100263.34
2023-05-09T22:07:08.204Z,100259.03
2023-05-09T22:09:38.046Z,100258.19
2023-05-09T22:12:04.718Z,100257.44
2023-05-09T22:14:33.494Z,100255.44
2023-05-09T22:17:01.755Z,100258.16
2023-05-09T22:19:28.470Z,100259.84
2023-05-09T22:21:55.062Z,100253.72
2023-05-09T22:24:21.817Z,100247.75
2023-05-09T22:26:48.374Z,100253.78
2023-05-09T22:29:16.684Z,100252.94
2023-05-09T22:31:44.546Z,100251.31
2023-05-09T22:34:13.429Z,100258.16
2023-05-09T22:36:40.062Z,100262.38
2023-05-09T22:39:06.780Z,100258.03
2023-05-09T22:41:33.351Z,100266.63
2023-05-09T22:44:02.332Z,100263.19
2023-05-09T22:46:31.320Z,100257.25
2023-05-09T22:49:02.464Z,100258.91
2023-05-09T22:51:32.479Z,100258.09
2023-05-09T22:54:01.568Z,100245.94
2023-05-09T22:56:28.131Z,100254.50
2023-05-09T22:58:54.746Z,100238.81
2023-05-09T23:01:23.636Z,100244.13
2023-05-09T23:03:50.735Z,100245.91
2023-05-09T23:09:39.270Z,100245.00
2023-05-09T23:12:10.332Z,100239.16
2023-05-09T23:14:39.847Z,100245.97
2023-05-09T23:17:08.880Z,100245.09
2023-05-09T23:19:35.322Z,100243.81
2023-05-09T23:22:04.595Z,100239.66
2023-05-09T23:24:33.623Z,100235.47
2023-05-09T23:27:00.138Z,100241.66
2023-05-09T23:29:29.026Z,100245.94
2023-05-09T23:31:55.709Z,100238.63
2023-05-09T23:34:25.207Z,100235.81
2023-05-09T23:36:56.519Z,100236.69
2023-05-09T23:39:25.536Z,100228.47
2023-05-09T23:41:54.888Z,100230.13
2023-05-09T23:44:21.530Z,100230.50
2023-05-09T23:46:50.573Z,100224.75
2023-05-09T23:49:19.584Z,100230.09
2023-05-09T23:51:48.386Z,100233.56
2023-05-09T23:54:17.371Z,100225.22
2023-05-09T23:56:48.753Z,100218.06
2023-05-09T23:59:15.453Z,100222.44
